Time;durP1;ratioP1;P1;durP2;ratioP2;P2;SDS_P1;SDS_P2;PMS_P1;PMS_P2;Temp;Humidity;BMP_temperature;BMP_pressure;BME280_temperature;BME280_humidity;BME280_pressure;Samples;Min_cycle;Max_cycle;Signal;HPM_P1;HPM_P2
2022/09/15 00:01:46;;;;;;;5.55;2.35;;;;;;;24.53;42.42;100103.88;1716025;82;21109;-80
2022/09/15 00:04:13;;;;;;;3.83;2.33;;;;;;;24.52;42.41;100104.50;1741633;81;21003;-80
2022/09/15 00:06:39;;;;;;;3.77;2.67;;;;;;;24.52;42.43;100106.47;1753512;81;21524;-80
2022/09/15 00:09:05;;;;;;;4.17;2.60;;;;;;;24.53;42.42;100099.71;1753474;81;21031;-80
2022/09/15 00:11:33;;;;;;;3.25;2.20;;;;;;;24.53;42.41;100101.10;1753134;81;21022;-80
2022/09/15 00:14:01;;;;;;;4.55;2.25;;;;;;;24.53;42.41;100102.49;1753333;81;21047;-80
2022/09/15 00:16:29;;;;;;;3.65;2.20;;;;;;;24.53;42.44;100101.10;1753210;81;21070;-80
2022/09/15 00:18:56;;;;;;;4.80;2.33;;;;;;;24.53;42.44;100101.10;1752555;81;21171;-80
2022/09/15 00:21:29;;;;;;;3.67;2.37;;;;;;;24.53;42.44;100101.10;1748997;81;21167;-79
2022/09/15 00:23:55;;;;;;;5.35;2.50;;;;;;;24.52;42.45;100098.94;1732666;81;21058;-80
2022/09/15 00:26:24;;;;;;;3.60;2.08;;;;;;;24.52;42.46;100097.55;1745870;81;21151;-79
2022/09/15 00:28:50;;;;;;;4.35;2.22;;;;;;;24.53;42.46;100098.32;1720449;82;21036;-79
2022/09/15 00:31:20;;;;;;;4.00;2.20;;;;;;;24.52;42.48;100098.94;1720581;82;21278;-80
2022/09/15 00:33:48;;;;;;;5.83;2.98;;;;;;;24.53;42.49;100106.66;1720386;82;21439;-79
2022/09/15 00:36:14;;;;;;;2.75;2.20;;;;;;;24.52;42.50;100107.27;1736787;81;21044;-80
2022/09/15 00:38:41;;;;;;;3.98;2.37;;;;;;;24.53;42.49;100108.06;1720506;83;21548;-80
2022/09/15 00:41:10;;;;;;;4.08;2.50;;;;;;;24.52;42.52;100104.50;1720361;81;21019;-80
2022/09/15 00:44:03;;;;;;;4.10;2.47;;;;;;;24.52;42.52;100091.98;1714695;82;21017;-80
2022/09/15 00:46:35;;;;;;;3.58;2.42;;;;;;;24.52;42.54;100093.38;1689982;84;21023;-80
2022/09/15 00:49:18;;;;;;;4.45;2.42;;;;;;;24.52;42.53;100099.52;1690373;84;21060;-80
2022/09/15 00:52:12;;;;;;;3.70;2.58;;;;;;;24.52;42.55;100095.34;1688685;83;21071;-80
2022/09/15 00:54:59;;;;;;;4.75;2.42;;;;;;;24.51;42.53;100093.14;1688550;85;21063;-81
2022/09/15 00:57:30;;;;;;;6.00;2.77;;;;;;;24.50;42.55;100079.00;1688270;85;21220;-81
2022/09/15 00:59:58;;;;;;;3.83;2.58;;;;;;;24.50;42.54;100076.23;1688457;84;21028;-81
2022/09/15 01:02:28;;;;;;;5.30;2.67;;;;;;;24.50;42.54;100081.79;1688497;84;21433;-81
2022/09/15 01:04:55;;;;;;;4.67;2.60;;;;;;;24.49;42.55;100080.17;1715653;81;21042;-81
2022/09/15 01:07:42;;;;;;;3.35;2.35;;;;;;;24.49;42.55;100082.14;1727723;82;21122;-81
2022/09/15 01:10:29;;;;;;;4.75;2.30;;;;;;;24.49;42.57;100082.95;1727470;82;21172;-81
2022/09/15 01:12:59;;;;;;;4.05;2.62;;;;;;;24.49;42.58;100085.73;1734792;81;21569;-81
2022/09/15 01:15:31;;;;;;;3.87;2.67;;;;;;;24.49;42.60;100090.48;1718985;82;21040;-81
2022/09/15 01:18:03;;;;;;;2.85;2.30;;;;;;;24.48;42.61;100088.31;1718208;82;21598;-80
2022/09/15 01:20:47;;;;;;;3.42;2.10;;;;;;;24.48;42.63;100082.75;1719262;82;20985;-80
2022/09/15 01:23:44;;;;;;;3.15;2.02;;;;;;;24.49;42.64;100087.13;1720097;81;21162;-81
2022/09/15 01:26:57;;;;;;;4.90;2.70;;;;;;;24.48;42.64;100077.19;1693897;82;21532;-80
2022/09/15 01:29:56;;;;;;;5.85;2.30;;;;;;;24.48;42.64;100076.38;1711446;82;21011;-81
2022/09/15 01:33:05;;;;;;;3.62;2.25;;;;;;;24.47;42.63;100081.13;1711426;82;21086;-81
2022/09/15 01:36:02;;;;;;;3.80;2.45;;;;;;;24.46;42.63;100069.78;1711582;82;21109;-81
2022/09/15 01:38:52;;;;;;;3.77;2.42;;;;;;;24.46;42.63;100071.17;1711294;83;21207;-80
2022/09/15 01:41:26;;;;;;;3.55;2.35;;;;;;;24.45;42.64;100070.94;1702057;81;21018;-81
2022/09/15 01:44:06;;;;;;;4.05;2.65;;;;;;;24.44;42.66;100069.31;1717017;83;21044;-81
2022/09/15 01:46:36;;;;;;;5.15;2.72;;;;;;;24.44;42.70;100074.87;1716685;82;21072;-81
2022/09/15 01:49:03;;;;;;;3.95;2.55;;;;;;;24.43;42.72;100076.06;1720904;82;21416;-81
2022/09/15 01:51:29;;;;;;;5.05;2.45;;;;;;;24.44;42.71;100079.05;1685800;85;21648;-81
2022/09/15 01:53:56;;;;;;;4.17;2.27;;;;;;;24.44;42.71;100077.66;1677647;84;21070;-81
2022/09/15 01:56:22;;;;;;;3.27;2.27;;;;;;;24.45;42.72;100075.69;1659794;85;21053;-81
2022/09/15 01:58:48;;;;;;;4.30;2.33;;;;;;;24.45;42.72;100072.33;1689283;84;21109;-81
2022/09/15 02:01:30;;;;;;;3.80;2.27;;;;;;;24.45;42.75;100068.16;1709667;83;21042;-81
2022/09/15 02:04:17;;;;;;;3.55;2.08;;;;;;;24.46;42.75;100062.02;1700437;84;21141;-81
2022/09/15 02:07:05;;;;;;;4.17;2.40;;;;;;;24.46;42.74;100064.80;1708521;82;21105;-81
2022/09/15 02:09:36;;;;;;;3.35;2.35;;;;;;;24.46;42.71;100050.31;1694760;82;21045;-81
2022/09/15 02:12:33;;;;;;;3.33;2.25;;;;;;;24.46;42.70;100049.50;1709413;82;21026;-81
2022/09/15 02:15:08;;;;;;;3.75;2.60;;;;;;;24.46;42.72;100052.28;1709412;83;21033;-81
2022/09/15 02:17:38;;;;;;;4.85;2.72;;;;;;;24.45;42.70;100048.69;1709741;83;21656;-81
2022/09/15 02:20:15;;;;;;;2.57;1.83;;;;;;;24.45;42.74;100043.13;1686339;85;21050;-80
2022/09/15 02:22:46;;;;;;;4.45;2.30;;;;;;;24.45;42.72;100044.52;1675158;83;21585;-81
2022/09/15 02:25:17;;;;;;;4.53;2.27;;;;;;;24.45;42.71;100036.18;1679061;84;21049;-80
2022/09/15 02:27:45;;;;;;;;;;;;;;;24.45;42.74;100041.73;1731017;82;21060;-80
2022/09/15 02:30:13;;;;;;;4.10;2.17;;;;;;;24.46;42.75;100042.55;1734480;82;20332;-80
2022/09/15 02:32:48;;;;;;;4.72;2.65;;;;;;;24.44;42.76;100036.56;1734087;82;21054;-82
2022/09/15 02:35:14;;;;;;;3.47;2.30;;;;;;;24.43;42.77;100038.53;1732875;82;21524;-80
2022/09/15 02:37:41;;;;;;;4.40;2.55;;;;;;;24.44;42.76;100034.56;1734624;82;21034;-80
2022/09/15 02:40:08;;;;;;;3.60;2.67;;;;;;;24.45;42.78;100026.45;1734401;82;21116;-80
2022/09/15 02:42:34;;;;;;;4.12;2.45;;;;;;;24.45;42.79;100015.91;1734582;82;21061;-81
2022/09/15 02:45:01;;;;;;;3.25;2.27;;;;;;;24.45;42.82;100018.69;1734366;82;21057;-81
2022/09/15 02:47:27;;;;;;;3.30;2.30;;;;;;;24.45;42.79;100027.03;1729725;82;21058;-80
2022/09/15 02:49:54;;;;;;;4.50;2.35;;;;;;;24.45;42.80;100025.64;1699542;83;21102;-82
2022/09/15 02:52:20;;;;;;;3.77;2.40;;;;;;;24.46;42.83;100036.98;1743806;81;21055;-81
2022/09/15 02:54:47;;;;;;;3.77;2.33;;;;;;;24.46;42.81;100039.19;1745834;81;21167;-81
2022/09/15 02:57:13;;;;;;;3.90;2.55;;;;;;;24.46;42.84;100040.58;1728450;82;21496;-81
2022/09/15 03:02:31;;;;;;;;;;;;;;;24.46;42.84;100028.06;1717619;81;21554;-81
2022/09/15 03:04:57;;;;;;;2.67;2.08;;;;;;;24.46;42.83;100032.23;1715766;82;20147;-81
2022/09/15 03:07:23;;;;;;;3.50;2.50;;;;;;;24.45;42.82;100035.37;1715238;83;21479;-81
2022/09/15 03:09:50;;;;;;;4.65;2.50;;;;;;;24.45;42.82;100035.37;1715004;81;21043;-81
2022/09/15 03:12:16;;;;;;;4.05;2.40;;;;;;;24.44;42.83;100035.95;1719738;81;21549;-81
2022/09/15 03:14:43;;;;;;;4.65;2.30;;;;;;;24.45;42.82;100037.57;1742496;81;21039;-81
2022/09/15 03:17:09;;;;;;;2.65;2.02;;;;;;;24.45;42.85;100040.35;1724781;81;21145;-81
2022/09/15 03:19:42;;;;;;;4.17;2.40;;;;;;;24.45;42.84;100043.13;1742528;82;20988;-81
2022/09/15 03:22:09;;;;;;;3.08;2.37;;;;;;;24.44;42.84;100042.90;1721221;81;21074;-81
2022/09/15 03:24:36;;;;;;;2.80;2.15;;;;;;;24.45;42.84;100050.08;1740189;82;21047;-81
2022/09/15 03:27:04;;;;;;;3.27;2.30;;;;;;;24.45;42.87;100050.08;1742288;81;21043;-80
2022/09/15 03:29:30;;;;;;;3.58;2.37;;;;;;;24.46;42.88;100051.70;1742036;81;21008;-81
2022/09/15 03:31:57;;;;;;;3.60;2.33;;;;;;;24.45;42.84;100048.69;1742097;81;21466;-80
2022/09/15 03:34:23;;;;;;;4.08;2.30;;;;;;;24.45;42.84;100043.13;1742161;82;21070;-81
2022/09/15 03:36:49;;;;;;;3.52;2.10;;;;;;;24.46;42.88;100053.67;1746028;81;21058;-80
2022/09/15 03:39:16;;;;;;;2.75;2.27;;;;;;;24.46;42.85;100046.14;1719934;82;21466;-81
2022/09/15 03:41:42;;;;;;;4.03;2.65;;;;;;;24.46;42.87;100049.50;1716657;82;21536;-81
2022/09/15 03:44:08;;;;;;;4.05;2.05;;;;;;;24.47;42.88;100045.56;1741181;81;21134;-81
2022/09/15 03:46:34;;;;;;;3.80;2.30;;;;;;;24.45;42.85;100047.88;1741820;82;21168;-81
2022/09/15 03:49:01;;;;;;;2.58;2.27;;;;;;;24.46;42.89;100046.14;1742204;81;21517;-81
2022/09/15 03:51:27;;;;;;;4.15;2.60;;;;;;;24.46;42.90;100041.16;1739786;81;21069;-81
2022/09/15 03:53:54;;;;;;;5.12;2.35;;;;;;;24.45;42.89;100036.76;1755893;80;21109;-81
2022/09/15 03:56:27;;;;;;;5.83;2.20;;;;;;;24.45;42.90;100040.35;1731019;81;21161;-81
2022/09/15 03:58:53;;;;;;;4.58;2.30;;;;;;;24.45;42.86;100036.76;1698877;82;21036;-81
2022/09/15 04:01:20;;;;;;;3.98;2.60;;;;;;;24.43;42.89;100030.19;1722714;82;21075;-80
2022/09/15 04:03:52;;;;;;;6.45;2.87;;;;;;;24.42;42.86;100025.79;1688695;83;21063;-81
2022/09/15 04:06:20;;;;;;;5.03;2.50;;;;;;;24.42;42.83;100023.59;1721374;82;21084;-81
2022/09/15 04:08:47;;;;;;;27.15;4.50;;;;;;;24.42;42.81;100022.20;1719613;82;21587;-81
2022/09/15 04:11:13;;;;;;;17.85;4.20;;;;;;;24.41;42.86;100024.17;1719453;82;21464;-81
2022/09/15 04:13:40;;;;;;;20.32;3.27;;;;;;;24.40;42.87;100028.11;1716845;82;21049;-81
2022/09/15 04:16:12;;;;;;;10.85;2.80;;;;;;;24.40;42.88;100035.06;1719484;82;21177;-81
2022/09/15 04:18:39;;;;;;;9.73;2.83;;;;;;;24.40;42.90;100037.84;1693971;83;21056;-81
2022/09/15 04:21:07;;;;;;;7.95;2.80;;;;;;;24.41;42.88;100035.88;1713235;83;21451;-81
2022/09/15 04:23:34;;;;;;;3.00;2.27;;;;;;;24.37;42.86;100037.19;1710033;82;21585;-80
2022/09/15 04:26:03;;;;;;;9.23;3.47;;;;;;;24.35;42.78;100042.31;1706962;83;21039;-81
2022/09/15 04:28:32;;;;;;;5.62;2.60;;;;;;;24.32;42.73;100035.25;1707413;83;21078;-80
2022/09/15 04:31:11;;;;;;;6.00;2.83;;;;;;;24.27;42.71;100036.37;1697758;82;21577;-79
2022/09/15 04:33:44;;;;;;;4.17;3.02;;;;;;;24.24;42.68;100037.06;1713658;82;21150;-79
2022/09/15 04:36:17;;;;;;;9.05;3.17;;;;;;;24.20;42.68;100027.84;1706716;83;21087;-79
2022/09/15 04:38:43;;;;;;;11.68;3.30;;;;;;;24.16;42.65;100028.34;1699134;83;21063;-77
2022/09/15 04:41:10;;;;;;;9.93;3.30;;;;;;;24.12;42.61;100031.00;1746033;80;21059;-79
2022/09/15 04:43:39;;;;;;;8.53;3.42;;;;;;;24.10;42.59;100024.20;1701373;82;21071;-79
2022/09/15 04:46:05;;;;;;;6.25;3.08;;;;;;;24.07;42.59;100026.30;1709477;81;21850;-78
2022/09/15 04:48:32;;;;;;;10.15;3.85;;;;;;;24.04;42.58;100026.44;1714270;82;21166;-78
2022/09/15 04:51:03;;;;;;;14.40;3.30;;;;;;;24.02;42.62;100026.56;1698108;82;21512;-80
2022/09/15 04:53:29;;;;;;;10.00;3.35;;;;;;;23.95;42.66;100016.67;1671675;83;21038;-77
2022/09/15 04:56:04;;;;;;;17.12;4.22;;;;;;;23.92;42.75;100028.51;1681583;83;21115;-79
2022/09/15 04:58:37;;;;;;;11.83;3.65;;;;;;;23.92;42.79;100034.06;1670752;83;21173;-77
2022/09/15 05:01:21;;;;;;;24.95;4.20;;;;;;;23.91;42.86;100038.81;1701924;82;21561;-78
2022/09/15 05:03:48;;;;;;;17.73;3.45;;;;;;;23.89;42.92;100038.34;1679376;82;21107;-79
2022/09/15 05:06:16;;;;;;;11.55;3.55;;;;;;;23.86;42.98;100032.12;1686461;83;21097;-77
2022/09/15 05:08:48;;;;;;;10.95;3.55;;;;;;;23.87;43.03;100034.33;1688316;83;21082;-80
2022/09/15 05:11:15;;;;;;;16.45;3.02;;;;;;;23.86;43.07;100029.92;1685341;83;21378;-77
2022/09/15 05:13:42;;;;;;;14.93;3.27;;;;;;;23.88;43.12;100025.64;1683694;83;21477;-80
2022/09/15 05:16:17;;;;;;;13.55;3.98;;;;;;;23.92;43.10;100025.16;1688451;83;21031;-80
2022/09/15 05:18:44;;;;;;;17.00;4.12;;;;;;;23.94;43.11;100035.88;1664292;83;21524;-81
2022/09/15 05:21:15;;;;;;;15.58;3.50;;;;;;;23.95;43.11;100035.54;1656002;83;21338;-85
2022/09/15 05:23:41;;;;;;;12.10;3.57;;;;;;;23.96;43.09;100039.12;1691749;83;21290;-84
2022/09/15 05:26:11;;;;;;;13.00;3.70;;;;;;;23.97;43.13;100037.97;1691858;83;21329;-82
2022/09/15 05:28:38;;;;;;;10.85;3.60;;;;;;;23.99;43.13;100040.60;1684182;83;21055;-82
2022/09/15 05:31:16;;;;;;;12.10;3.40;;;;;;;24.00;43.12;100046.97;1687973;83;22087;-83
2022/09/15 05:33:42;;;;;;;12.18;3.87;;;;;;;24.02;43.08;100051.56;1678246;82;21586;-82
2022/09/15 05:36:08;;;;;;;11.45;3.58;;;;;;;24.03;43.04;100047.63;1698020;83;21968;-82
2022/09/15 05:38:35;;;;;;;9.85;3.92;;;;;;;24.03;43.03;100045.66;1681003;83;21637;-84
2022/09/15 05:41:04;;;;;;;10.45;3.42;;;;;;;24.04;43.00;100052.03;1701582;83;21550;-83
2022/09/15 05:43:34;;;;;;;10.55;3.70;;;;;;;24.04;42.98;100048.67;1685584;83;21088;-79
2022/09/15 05:46:01;;;;;;;12.10;3.50;;;;;;;24.05;42.97;100055.04;1694040;83;21172;-77
2022/09/15 05:48:27;;;;;;;12.75;3.25;;;;;;;24.05;43.01;100048.09;1671695;84;21169;-79
2022/09/15 05:50:54;;;;;;;15.53;3.42;;;;;;;24.06;43.10;100052.48;1684998;83;21151;-76
2022/09/15 05:53:21;;;;;;;23.07;4.33;;;;;;;24.07;43.19;100059.64;1688691;82;21550;-76
2022/09/15 05:55:47;;;;;;;13.58;3.70;;;;;;;24.08;43.26;100058.48;1663111;83;21115;-78
2022/09/15 05:58:13;;;;;;;26.45;4.33;;;;;;;24.09;43.28;100067.05;1690200;83;21102;-79
2022/09/15 06:00:43;;;;;;;24.92;3.77;;;;;;;24.08;43.50;100064.85;1684949;83;21153;-78
2022/09/15 06:03:14;;;;;;;19.92;4.30;;;;;;;24.12;43.74;100063.55;1686780;83;21087;-78
2022/09/15 06:05:43;;;;;;;20.02;4.28;;;;;;;24.14;43.96;100061.23;1686899;83;21200;-79
2022/09/15 06:08:10;;;;;;;27.87;6.67;;;;;;;24.16;43.98;100058.91;1710459;82;21069;-78
2022/09/15 06:10:36;;;;;;;18.67;4.65;;;;;;;24.16;43.99;100053.35;1690409;82;21053;-78
2022/09/15 06:13:02;;;;;;;12.82;3.90;;;;;;;24.15;43.96;100058.68;1713304;81;21557;-78
2022/09/15 06:15:29;;;;;;;11.28;3.58;;;;;;;24.13;43.93;100047.91;1700579;83;21524;-81
2022/09/15 06:17:56;;;;;;;10.05;3.50;;;;;;;24.14;43.90;100049.50;1675673;83;21088;-79
2022/09/15 06:20:22;;;;;;;12.03;3.37;;;;;;;24.13;43.87;100047.91;1684909;82;21310;-78
2022/09/15 06:22:48;;;;;;;10.80;3.90;;;;;;;24.15;43.84;100044.78;1683214;83;21065;-81
2022/09/15 06:25:15;;;;;;;12.85;4.15;;;;;;;24.17;43.82;100038.88;1651702;83;21693;-80
2022/09/15 06:27:41;;;;;;;16.75;5.05;;;;;;;24.17;43.75;100028.56;1710757;82;21061;-79
2022/09/15 06:30:09;;;;;;;12.73;3.85;;;;;;;24.19;43.91;100026.22;1709063;81;21999;-77
2022/09/15 06:32:42;;;;;;;8.80;3.55;;;;;;;24.21;43.87;100032.81;1710971;81;21458;-78
2022/09/15 06:35:08;;;;;;;12.63;4.20;;;;;;;24.19;43.81;100034.56;1703164;82;21165;-78
2022/09/15 06:37:35;;;;;;;10.85;3.52;;;;;;;24.18;43.82;100021.85;1692891;83;21242;-77
2022/09/15 06:40:03;;;;;;;9.25;3.08;;;;;;;24.20;43.81;100022.86;1703101;81;21076;-79
2022/09/15 06:42:30;;;;;;;14.75;5.47;;;;;;;24.21;43.89;100023.09;1706718;82;21078;-78
2022/09/15 06:44:57;;;;;;;9.60;3.92;;;;;;;24.23;43.88;100020.16;1701876;81;21146;-80
2022/09/15 06:47:23;;;;;;;14.33;4.05;;;;;;;24.23;43.87;100017.38;1705630;82;21129;-78
2022/09/15 06:49:49;;;;;;;25.02;3.83;;;;;;;24.24;43.96;100012.05;1707960;82;21225;-76
2022/09/15 06:52:16;;;;;;;15.55;4.03;;;;;;;24.24;44.07;100019.00;1699272;82;21135;-77
2022/09/15 06:54:48;;;;;;;24.85;4.50;;;;;;;24.27;44.24;100025.83;1690807;82;21357;-76
2022/09/15 06:57:14;;;;;;;19.42;4.12;;;;;;;24.29;44.52;100027.65;1694953;82;21097;-76
2022/09/15 06:59:41;;;;;;;19.37;3.98;;;;;;;24.31;44.61;100024.75;1692993;81;21136;-77
2022/09/15 07:02:08;;;;;;;33.78;4.72;;;;;;;24.32;44.96;100031.09;1693497;82;21521;-79
2022/09/15 07:04:37;;;;;;;36.83;5.17;;;;;;;24.36;45.27;100025.02;1709993;82;21114;-76
2022/09/15 07:07:04;;;;;;;22.60;4.37;;;;;;;24.37;45.41;100018.30;1678563;82;21112;-78
2022/09/15 07:09:32;;;;;;;19.65;4.45;;;;;;;24.38;45.45;100004.05;1700434;82;21129;-81
2022/09/15 07:11:58;;;;;;;10.80;3.45;;;;;;;24.40;45.41;100007.27;1702934;82;21169;-83
2022/09/15 07:14:25;;;;;;;13.95;4.83;;;;;;;24.40;45.31;100000.31;1700335;82;21121;-80
2022/09/15 07:16:51;;;;;;;16.00;4.45;;;;;;;24.42;45.25;100009.69;1693959;82;20948;-83
2022/09/15 07:19:18;;;;;;;20.40;5.15;;;;;;;24.42;45.23;100006.91;1696727;82;21048;-84
2022/09/15 07:21:45;;;;;;;11.25;4.00;;;;;;;24.44;45.24;100015.70;1695392;82;21525;-84
2022/09/15 07:24:11;;;;;;;17.55;4.15;;;;;;;24.45;45.19;100015.33;1687159;82;21095;-84
2022/09/15 07:26:39;;;;;;;11.68;3.80;;;;;;;24.46;45.12;100016.13;1706696;82;21060;-80
2022/09/15 07:29:06;;;;;;;12.85;4.17;;;;;;;24.48;45.08;100027.72;1715749;82;21227;-80
2022/09/15 07:31:33;;;;;;;12.35;4.30;;;;;;;24.48;44.99;100029.11;1708543;82;21086;-79
2022/09/15 07:34:00;;;;;;;11.22;3.83;;;;;;;24.49;44.96;100027.91;1710360;82;21530;-81
2022/09/15 07:36:26;;;;;;;11.50;5.05;;;;;;;24.49;44.86;100025.94;1702190;82;21115;-81
2022/09/15 07:38:53;;;;;;;14.33;4.47;;;;;;;24.51;44.85;100032.55;1713108;81;21085;-78
2022/09/15 07:41:28;;;;;;;11.83;4.90;;;;;;;24.50;44.83;100040.08;1696097;82;21050;-79
2022/09/15 07:43:56;;;;;;;11.25;4.15;;;;;;;24.52;44.80;100034.97;1699145;82;21107;-79
2022/09/15 07:46:30;;;;;;;9.78;3.92;;;;;;;24.52;44.78;100037.75;1699354;81;21606;-80
2022/09/15 07:48:56;;;;;;;22.42;5.40;;;;;;;24.52;44.88;100034.16;1692748;82;21122;-79
2022/09/15 07:51:24;;;;;;;25.90;4.87;;;;;;;24.52;45.22;100030.80;1672067;84;49124;-82
2022/09/15 07:53:51;;;;;;;28.10;4.53;;;;;;;24.55;45.65;100032.84;1692348;82;21105;-80
2022/09/15 07:56:17;;;;;;;30.95;5.08;;;;;;;24.56;45.93;100035.86;1696154;82;21077;-76
2022/09/15 07:58:45;;;;;;;40.88;5.47;;;;;;;24.60;46.22;100038.72;1672919;82;21069;-77
2022/09/15 08:01:13;;;;;;;38.48;4.92;;;;;;;24.64;46.33;100044.35;1690261;82;21186;-78
2022/09/15 08:03:42;;;;;;;29.67;5.15;;;;;;;24.67;46.42;100045.01;1698224;82;21642;-79
2022/09/15 08:06:08;;;;;;;24.80;3.80;;;;;;;24.68;46.53;100041.06;1700696;82;21060;-76
2022/09/15 08:08:56;;;;;;;23.75;3.77;;;;;;;24.71;46.53;100058.41;1694085;82;21561;-77
2022/09/15 08:11:22;;;;;;;17.95;4.10;;;;;;;24.70;46.49;100050.64;1716039;81;21035;-78
2022/09/15 08:13:49;;;;;;;24.20;4.65;;;;;;;24.71;46.37;100060.61;1724195;81;21077;-81
2022/09/15 08:16:21;;;;;;;15.10;3.87;;;;;;;24.72;46.29;100048.91;1715231;81;22313;-77
2022/09/15 08:18:48;;;;;;;13.40;3.83;;;;;;;24.71;46.13;100045.89;1711048;81;21737;-75
2022/09/15 08:21:19;;;;;;;12.65;3.83;;;;;;;24.72;45.91;100053.08;1717512;83;21634;-74
2022/09/15 08:23:54;;;;;;;8.78;3.25;;;;;;;24.71;45.71;100057.83;1713274;81;21105;-75
2022/09/15 08:26:21;;;;;;;9.48;3.70;;;;;;;24.71;45.46;100056.44;1723274;80;21107;-75
2022/09/15 08:28:48;;;;;;;8.53;3.25;;;;;;;24.72;45.27;100048.91;1721549;80;21449;-75
2022/09/15 08:31:15;;;;;;;8.30;3.17;;;;;;;24.72;45.06;100062.23;1717481;81;21155;-78
2022/09/15 08:33:41;;;;;;;10.28;3.72;;;;;;;24.71;44.86;100070.34;1724554;81;21130;-76
2022/09/15 08:36:12;;;;;;;10.68;3.47;;;;;;;24.73;44.83;100056.09;1712279;82;21138;-74
2022/09/15 08:38:39;;;;;;;8.80;2.75;;;;;;;24.73;44.72;100051.33;1723346;80;21099;-75
2022/09/15 08:41:18;;;;;;;13.70;3.45;;;;;;;24.74;44.61;100042.41;1715722;80;21182;-75
2022/09/15 08:44:07;;;;;;;11.25;2.75;;;;;;;24.75;44.51;100038.43;1697928;82;21102;-75
2022/09/15 08:46:41;;;;;;;16.93;2.98;;;;;;;24.76;44.45;100029.73;1717824;81;21120;-75
2022/09/15 08:49:17;;;;;;;20.68;3.10;;;;;;;24.77;44.54;100034.13;1718786;81;22103;-76
2022/09/15 08:51:49;;;;;;;12.20;2.98;;;;;;;24.78;44.65;100021.81;1717905;81;21907;-75
2022/09/15 08:54:24;;;;;;;9.88;2.72;;;;;;;24.81;44.70;100018.32;1695750;82;21136;-79
2022/09/15 08:56:50;;;;;;;17.60;3.20;;;;;;;24.82;44.76;100018.55;1715605;81;20971;-76
2022/09/15 08:59:18;;;;;;;12.28;3.08;;;;;;;24.85;44.77;100018.39;1715791;81;21101;-79
2022/09/15 09:02:32;;;;;;;10.93;2.98;;;;;;;24.86;44.71;100029.20;1717446;81;21071;-80
2022/09/15 09:05:33;;;;;;;11.03;2.42;;;;;;;24.85;44.66;100018.39;1708989;82;21101;-80
2022/09/15 09:08:29;;;;;;;13.35;3.30;;;;;;;24.88;44.60;100013.51;1713211;81;21388;-78
2022/09/15 09:11:30;;;;;;;9.03;3.00;;;;;;;24.90;44.51;100007.81;1725568;80;21053;-78
2022/09/15 09:14:11;;;;;;;;;;;;;;;24.93;44.32;100007.08;1704952;82;21564;-80
2022/09/15 09:17:12;;;;;;;11.18;2.62;;;;;;;24.95;44.14;100008.89;1718621;81;20214;-77
2022/09/15 09:20:13;;;;;;;11.70;2.87;;;;;;;24.94;44.13;100000.34;1728186;81;21538;-77
2022/09/15 09:22:40;;;;;;;;;;;;;;;24.97;43.83;100004.36;1685104;84;21378;-80
2022/09/15 09:25:12;;;;;;;8.88;2.47;;;;;;;25.00;43.44;100007.21;1721910;81;20253;-82
2022/09/15 09:27:39;;;;;;;10.13;2.60;;;;;;;25.01;43.46;100002.45;1730549;82;21061;-80
2022/09/15 09:30:16;;;;;;;7.60;2.33;;;;;;;25.04;43.26;99991.20;1722691;82;21061;-78
2022/09/15 09:33:14;;;;;;;11.45;2.60;;;;;;;25.06;43.10;99984.66;1711668;81;21386;-79
2022/09/15 09:35:48;;;;;;;14.68;2.70;;;;;;;25.09;42.90;99995.05;1708479;82;21229;-79
2022/09/15 09:38:26;;;;;;;10.78;2.47;;;;;;;25.11;42.84;99991.33;1706011;81;21125;-77
2022/09/15 09:40:52;;;;;;;6.03;2.12;;;;;;;25.12;42.74;99988.16;1708141;81;21389;-79
2022/09/15 09:43:18;;;;;;;6.83;2.60;;;;;;;25.16;42.71;99989.64;1710059;82;21077;-79
2022/09/15 09:45:45;;;;;;;8.13;2.50;;;;;;;25.18;42.65;99983.10;1717545;82;21053;-78
2022/09/15 09:48:20;;;;;;;9.13;2.90;;;;;;;25.20;42.59;99988.54;1721149;81;21200;-79
2022/09/15 09:50:48;;;;;;;13.25;3.05;;;;;;;25.23;42.54;99978.05;1721366;82;21505;-78
2022/09/15 09:53:31;;;;;;;22.98;3.00;;;;;;;25.25;42.57;99976.30;1727730;81;21506;-79
2022/09/15 09:56:15;;;;;;;16.35;2.98;;;;;;;25.26;42.73;99975.91;1716382;81;21084;-78
2022/09/15 09:58:47;;;;;;;11.28;2.30;;;;;;;25.26;43.00;99978.70;1713716;81;21070;-79
2022/09/15 10:01:16;;;;;;;12.65;2.25;;;;;;;25.27;43.36;99968.37;1726350;81;22132;-77
2022/09/15 10:03:44;;;;;;;10.15;2.22;;;;;;;25.30;43.33;99967.62;1694524;82;21496;-80
2022/09/15 10:06:24;;;;;;;16.35;2.52;;;;;;;25.33;43.55;99971.86;1720762;81;21058;-78
2022/09/15 10:08:56;;;;;;;10.18;2.17;;;;;;;25.35;43.59;99972.30;1695323;82;21070;-80
2022/09/15 10:11:51;;;;;;;10.48;1.85;;;;;;;25.35;43.53;99963.95;1746174;80;21048;-80
2022/09/15 10:14:31;;;;;;;7.17;2.30;;;;;;;25.36;43.46;99957.80;1731261;81;21192;-78
2022/09/15 10:17:16;;;;;;;6.37;1.82;;;;;;;25.36;43.31;99961.98;1707316;81;21114;-79
2022/09/15 10:19:53;;;;;;;10.80;2.90;;;;;;;25.36;43.20;99963.37;1746077;80;21086;-80
2022/09/15 10:22:36;;;;;;;11.45;2.20;;;;;;;25.35;43.06;99959.78;1760431;80;21663;-79
2022/09/15 10:25:25;;;;;;;10.70;2.50;;;;;;;25.36;42.80;99955.83;1732950;82;21564;-79
2022/09/15 10:28:13;;;;;;;5.72;2.27;;;;;;;25.37;42.66;99950.48;1693474;82;21090;-79
2022/09/15 10:31:04;;;;;;;11.08;3.22;;;;;;;25.38;42.54;99940.93;1700776;82;21693;-79
2022/09/15 10:33:37;;;;;;;5.03;2.10;;;;;;;25.40;42.43;99950.31;1718206;81;21079;-79
2022/09/15 10:36:16;;;;;;;25.23;3.27;;;;;;;25.38;42.39;99944.30;1687088;83;21111;-79
2022/09/15 10:38:48;;;;;;;8.60;2.30;;;;;;;25.38;42.28;99945.11;1721248;81;22045;-79
2022/09/15 10:41:30;;;;;;;10.35;2.40;;;;;;;25.41;42.09;99926.87;1736234;81;21226;-77
2022/09/15 10:44:36;;;;;;;12.47;2.45;;;;;;;25.42;41.97;99938.20;1745156;80;21109;-79
2022/09/15 10:47:29;;;;;;;9.23;2.87;;;;;;;25.44;41.88;99927.51;1672359;82;21048;-80
2022/09/15 10:50:06;;;;;;;8.13;2.33;;;;;;;25.42;41.98;99922.30;1747121;80;21549;-81
2022/09/15 10:53:03;;;;;;;8.65;1.95;;;;;;;25.42;41.95;99920.10;1705515;81;21569;-79
2022/09/15 10:55:59;;;;;;;12.07;2.00;;;;;;;25.41;42.10;99909.58;1732743;82;21134;-79
2022/09/15 10:58:49;;;;;;;14.58;2.52;;;;;;;25.44;42.60;99908.83;1742479;80;21256;-81
2022/09/15 11:01:33;;;;;;;15.03;2.40;;;;;;;25.48;43.00;99919.44;1733402;81;21083;-81
2022/09/15 11:04:17;;;;;;;7.70;2.20;;;;;;;25.52;43.06;99910.33;1707925;82;21155;-76
2022/09/15 11:07:04;;;;;;;8.78;2.30;;;;;;;25.57;42.96;99913.64;1737264;80;21031;-81
2022/09/15 11:09:49;;;;;;;15.93;2.62;;;;;;;25.60;42.67;99912.08;1729380;80;21660;-79
2022/09/15 11:12:53;;;;;;;16.55;2.42;;;;;;;25.63;42.24;99911.36;1713034;82;21074;-76
2022/09/15 11:15:43;;;;;;;13.20;2.40;;;;;;;25.68;42.00;99899.88;1740168;80;21258;-80
2022/09/15 11:18:30;;;;;;;12.50;2.57;;;;;;;25.68;41.93;99899.88;1735493;81;21161;-79
2022/09/15 11:21:21;;;;;;;9.40;2.77;;;;;;;25.67;41.79;99894.11;1734914;80;21087;-80
2022/09/15 11:24:02;;;;;;;;;;;;;;;25.65;41.73;99890.88;1734696;80;21082;-83
2022/09/15 11:26:34;;;;;;;7.40;2.22;;;;;;;25.64;41.65;99888.68;1702533;82;20340;-78
2022/09/15 11:29:32;;;;;;;9.23;2.90;;;;;;;25.63;41.66;99884.89;1738869;80;21520;-82
2022/09/15 11:32:06;;;;;;;11.22;2.60;;;;;;;25.62;41.55;99886.87;1716237;82;21475;-82
2022/09/15 11:34:49;;;;;;;13.85;3.35;;;;;;;25.64;41.42;99880.91;1726562;81;21632;-81
2022/09/15 11:37:22;;;;;;;12.45;2.58;;;;;;;25.62;41.32;99867.95;1735598;80;21637;-83
2022/09/15 11:39:56;;;;;;;7.83;2.47;;;;;;;25.63;41.25;99883.50;1722247;81;21109;-80
2022/09/15 11:42:42;;;;;;;5.50;2.12;;;;;;;25.63;41.18;99880.72;1715602;82;21429;-80
2022/09/15 11:45:16;;;;;;;11.48;2.90;;;;;;;25.62;41.23;99881.89;1715153;81;21061;-81
2022/09/15 11:47:44;;;;;;;14.45;2.90;;;;;;;25.62;41.26;99876.31;1730721;80;21073;-79
2022/09/15 11:50:19;;;;;;;13.72;2.20;;;;;;;25.60;41.26;99875.88;1735870;81;22179;-78
2022/09/15 11:53:23;;;;;;;10.43;2.17;;;;;;;25.58;41.17;99869.88;1727953;80;21117;-81
2022/09/15 11:56:08;;;;;;;14.58;2.27;;;;;;;25.57;41.23;99873.25;1719630;80;21373;-77